sensor_id;sensor_type;location;lat;lon;timestamp;temperature;humidity
17701;DHT22;8969;48.576;12.580;2023-06-22T00:00:34;19.10;99.90
17701;DHT22;8969;48.576;12.580;2023-06-22T00:03:02;19.10;99.90
17701;DHT22;8969;48.576;12.580;2023-06-22T00:05:30;19.10;99.90
17701;DHT22;8969;48.576;12.580;2023-06-22T00:08:02;19.10;99.90
17701;DHT22;8969;48.576;12.580;2023-06-22T00:10:31;19.00;99.90
17701;DHT22;8969;48.576;12.580;2023-06-22T00:12:59;18.90;99.90
17701;DHT22;8969;48.576;12.580;2023-06-22T00:15:28;18.90;99.90
17701;DHT22;8969;48.576;12.580;2023-06-22T00:17:57;19.00;99.90
17701;DHT22;8969;48.576;12.580;2023-06-22T00:20:26;19.00;99.90
17701;DHT22;8969;48.576;12.580;2023-06-22T00:22:59;18.90;99.90
17701;DHT22;8969;48.576;12.580;2023-06-22T00:25:29;19.00;99.90
17701;DHT22;8969;48.576;12.580;2023-06-22T00:27:57;18.90;99.90
17701;DHT22;8969;48.576;12.580;2023-06-22T00:30:26;18.90;99.90
17701;DHT22;8969;48.576;12.580;2023-06-22T00:32:57;18.80;99.90
17701;DHT22;8969;48.576;12.580;2023-06-22T00:35:26;18.80;99.90
17701;DHT22;8969;48.576;12.580;2023-06-22T00:37:56;18.80;99.90
17701;DHT22;8969;48.576;12.580;2023-06-22T00:40:31;18.80;99.90
17701;DHT22;8969;48.576;12.580;2023-06-22T00:42:59;18.70;99.90
17701;DHT22;8969;48.576;12.580;2023-06-22T00:45:28;18.70;99.90
17701;DHT22;8969;48.576;12.580;2023-06-22T00:47:57;18.70;99.90
17701;DHT22;8969;48.576;12.580;2023-06-22T00:50:28;18.80;99.90
17701;DHT22;8969;48.576;12.580;2023-06-22T00:53:01;18.70;99.90
17701;DHT22;8969;48.576;12.580;2023-06-22T00:55:37;18.70;99.90
17701;DHT22;8969;48.576;12.580;2023-06-22T00:58:08;18.80;99.90
17701;DHT22;8969;48.576;12.580;2023-06-22T01:00:38;18.80;99.90
17701;DHT22;8969;48.576;12.580;2023-06-22T01:03:08;18.80;99.90
17701;DHT22;8969;48.576;12.580;2023-06-22T01:05:39;18.90;99.90
17701;DHT22;8969;48.576;12.580;2023-06-22T01:08:20;18.90;99.90
17701;DHT22;8969;48.576;12.580;2023-06-22T01:10:55;19.00;99.90
17701;DHT22;8969;48.576;12.580;2023-06-22T01:13:30;19.10;99.90
17701;DHT22;8969;48.576;12.580;2023-06-22T01:16:03;19.10;99.90
17701;DHT22;8969;48.576;12.580;2023-06-22T01:18:34;19.20;99.90
17701;DHT22;8969;48.576;12.580;2023-06-22T01:21:04;19.30;99.90
17701;DHT22;8969;48.576;12.580;2023-06-22T01:23:48;19.30;99.90
17701;DHT22;8969;48.576;12.580;2023-06-22T01:26:25;19.20;99.90
17701;DHT22;8969;48.576;12.580;2023-06-22T01:28:59;19.30;99.90
17701;DHT22;8969;48.576;12.580;2023-06-22T01:31:28;19.30;99.90
17701;DHT22;8969;48.576;12.580;2023-06-22T01:34:00;19.30;99.90
17701;DHT22;8969;48.576;12.580;2023-06-22T01:36:29;19.30;99.90
17701;DHT22;8969;48.576;12.580;2023-06-22T01:38:59;19.10;99.90
17701;DHT22;8969;48.576;12.580;2023-06-22T01:41:29;19.20;99.90
17701;DHT22;8969;48.576;12.580;2023-06-22T01:44:00;19.20;99.90
17701;DHT22;8969;48.576;12.580;2023-06-22T01:46:29;19.20;99.90
17701;DHT22;8969;48.576;12.580;2023-06-22T01:48:57;19.10;99.90
17701;DHT22;8969;48.576;12.580;2023-06-22T01:51:26;19.00;99.90
17701;DHT22;8969;48.576;12.580;2023-06-22T01:53:54;19.00;99.90
17701;DHT22;8969;48.576;12.580;2023-06-22T01:56:22;18.90;99.90
17701;DHT22;8969;48.576;12.580;2023-06-22T01:58:57;19.00;99.90
17701;DHT22;8969;48.576;12.580;2023-06-22T02:01:33;18.90;99.90
17701;DHT22;8969;48.576;12.580;2023-06-22T02:04:08;18.90;99.90
17701;DHT22;8969;48.576;12.580;2023-06-22T02:06:42;18.80;99.90
17701;DHT22;8969;48.576;12.580;2023-06-22T02:09:14;18.80;99.90
17701;DHT22;8969;48.576;12.580;2023-06-22T02:11:45;18.80;99.90
17701;DHT22;8969;48.576;12.580;2023-06-22T02:14:15;18.80;99.90
17701;DHT22;8969;48.576;12.580;2023-06-22T02:16:47;18.70;99.90
17701;DHT22;8969;48.576;12.580;2023-06-22T02:19:15;18.60;99.90
17701;DHT22;8969;48.576;12.580;2023-06-22T02:21:45;18.60;99.90
17701;DHT22;8969;48.576;12.580;2023-06-22T02:24:13;18.60;99.90
17701;DHT22;8969;48.576;12.580;2023-06-22T02:26:42;18.60;99.90
17701;DHT22;8969;48.576;12.580;2023-06-22T02:29:12;18.60;99.90
17701;DHT22;8969;48.576;12.580;2023-06-22T02:31:42;18.60;99.90
17701;DHT22;8969;48.576;12.580;2023-06-22T02:34:13;18.60;99.90
17701;DHT22;8969;48.576;12.580;2023-06-22T02:36:45;18.60;99.90
17701;DHT22;8969;48.576;12.580;2023-06-22T02:39:19;18.50;99.90
17701;DHT22;8969;48.576;12.580;2023-06-22T02:41:49;18.60;99.90
17701;DHT22;8969;48.576;12.580;2023-06-22T02:44:17;18.50;99.90
17701;DHT22;8969;48.576;12.580;2023-06-22T02:46:48;18.40;99.90
17701;DHT22;8969;48.576;12.580;2023-06-22T02:49:18;18.50;99.90
17701;DHT22;8969;48.576;12.580;2023-06-22T02:51:47;18.50;99.90
17701;DHT22;8969;48.576;12.580;2023-06-22T02:54:19;18.40;99.90
17701;DHT22;8969;48.576;12.580;2023-06-22T02:56:51;18.40;99.90
17701;DHT22;8969;48.576;12.580;2023-06-22T02:59:21;18.40;99.90
17701;DHT22;8969;48.576;12.580;2023-06-22T03:01:55;18.40;99.90
17701;DHT22;8969;48.576;12.580;2023-06-22T03:04:29;18.30;99.90
17701;DHT22;8969;48.576;12.580;2023-06-22T03:06:58;18.20;99.90
17701;DHT22;8969;48.576;12.580;2023-06-22T03:09:29;18.30;99.90
17701;DHT22;8969;48.576;12.580;2023-06-22T03:11:58;18.30;99.90
17701;DHT22;8969;48.576;12.580;2023-06-22T03:14:35;18.30;99.90
17701;DHT22;8969;48.576;12.580;2023-06-22T03:17:04;18.40;99.90
17701;DHT22;8969;48.576;12.580;2023-06-22T03:19:34;18.30;99.90
17701;DHT22;8969;48.576;12.580;2023-06-22T03:22:03;18.30;99.90
17701;DHT22;8969;48.576;12.580;2023-06-22T03:24:31;18.30;99.90
17701;DHT22;8969;48.576;12.580;2023-06-22T03:27:01;18.30;99.90
17701;DHT22;8969;48.576;12.580;2023-06-22T03:29:33;18.30;99.90
17701;DHT22;8969;48.576;12.580;2023-06-22T03:32:02;18.30;99.90
17701;DHT22;8969;48.576;12.580;2023-06-22T03:34:34;18.30;99.90
17701;DHT22;8969;48.576;12.580;2023-06-22T03:37:04;18.30;99.90
17701;DHT22;8969;48.576;12.580;2023-06-22T03:39:32;18.40;99.90
17701;DHT22;8969;48.576;12.580;2023-06-22T03:42:00;18.50;99.90
17701;DHT22;8969;48.576;12.580;2023-06-22T03:44:28;18.50;99.90
17701;DHT22;8969;48.576;12.580;2023-06-22T03:46:58;18.60;99.90
17701;DHT22;8969;48.576;12.580;2023-06-22T03:49:26;18.60;99.90
17701;DHT22;8969;48.576;12.580;2023-06-22T03:51:56;18.70;99.90
17701;DHT22;8969;48.576;12.580;2023-06-22T03:54:25;18.60;99.90
17701;DHT22;8969;48.576;12.580;2023-06-22T03:56:52;18.60;99.90
17701;DHT22;8969;48.576;12.580;2023-06-22T03:59:21;18.60;99.90
17701;DHT22;8969;48.576;12.580;2023-06-22T04:01:49;18.60;99.90
17701;DHT22;8969;48.576;12.580;2023-06-22T04:04:18;18.60;99.90
17701;DHT22;8969;48.576;12.580;2023-06-22T04:06:46;18.70;99.90
17701;DHT22;8969;48.576;12.580;2023-06-22T04:09:16;18.70;99.90
17701;DHT22;8969;48.576;12.580;2023-06-22T04:11:44;18.80;99.90
17701;DHT22;8969;48.576;12.580;2023-06-22T04:14:13;18.90;99.90
17701;DHT22;8969;48.576;12.580;2023-06-22T04:16:41;18.90;99.90
17701;DHT22;8969;48.576;12.580;2023-06-22T04:19:09;19.00;99.90
17701;DHT22;8969;48.576;12.580;2023-06-22T04:21:43;19.00;99.90
17701;DHT22;8969;48.576;12.580;2023-06-22T04:24:12;19.10;99.90
17701;DHT22;8969;48.576;12.580;2023-06-22T04:26:41;19.10;99.90
17701;DHT22;8969;48.576;12.580;2023-06-22T04:29:13;19.20;99.90
17701;DHT22;8969;48.576;12.580;2023-06-22T04:31:41;19.30;99.90
17701;DHT22;8969;48.576;12.580;2023-06-22T04:34:10;19.40;99.90
17701;DHT22;8969;48.576;12.580;2023-06-22T04:36:38;19.40;99.90
17701;DHT22;8969;48.576;12.580;2023-06-22T04:39:08;19.40;99.90
17701;DHT22;8969;48.576;12.580;2023-06-22T04:41:38;19.40;99.90
17701;DHT22;8969;48.576;12.580;2023-06-22T04:44:15;19.50;99.90
17701;DHT22;8969;48.576;12.580;2023-06-22T04:46:51;19.60;99.90
17701;DHT22;8969;48.576;12.580;2023-06-22T04:49:21;19.60;99.90
17701;DHT22;8969;48.576;12.580;2023-06-22T04:51:50;19.70;99.90
17701;DHT22;8969;48.576;12.580;2023-06-22T04:54:19;19.80;99.90
17701;DHT22;8969;48.576;12.580;2023-06-22T04:56:47;19.80;99.90
17701;DHT22;8969;48.576;12.580;2023-06-22T04:59:26;19.90;99.90
17701;DHT22;8969;48.576;12.580;2023-06-22T05:01:57;20.00;99.90
17701;DHT22;8969;48.576;12.580;2023-06-22T05:04:26;20.00;99.90
17701;DHT22;8969;48.576;12.580;2023-06-22T05:06:59;20.10;99.90
17701;DHT22;8969;48.576;12.580;2023-06-22T05:09:28;20.20;99.90
17701;DHT22;8969;48.576;12.580;2023-06-22T05:11:56;20.20;99.90
17701;DHT22;8969;48.576;12.580;2023-06-22T05:14:28;20.30;99.90
17701;DHT22;8969;48.576;12.580;2023-06-22T05:16:56;20.40;99.90
17701;DHT22;8969;48.576;12.580;2023-06-22T05:19:25;20.60;99.90
17701;DHT22;8969;48.576;12.580;2023-06-22T05:21:59;20.60;99.90
17701;DHT22;8969;48.576;12.580;2023-06-22T05:24:28;20.70;99.90
17701;DHT22;8969;48.576;12.580;2023-06-22T05:26:56;20.80;99.90
17701;DHT22;8969;48.576;12.580;2023-06-22T05:29:24;20.90;99.90
17701;DHT22;8969;48.576;12.580;2023-06-22T05:31:55;21.00;99.90
17701;DHT22;8969;48.576;12.580;2023-06-22T05:34:25;21.10;99.90
17701;DHT22;8969;48.576;12.580;2023-06-22T05:36:53;21.20;99.90
17701;DHT22;8969;48.576;12.580;2023-06-22T05:39:23;21.30;99.90
17701;DHT22;8969;48.576;12.580;2023-06-22T05:41:51;21.30;99.90
17701;DHT22;8969;48.576;12.580;2023-06-22T05:44:20;21.40;99.90
17701;DHT22;8969;48.576;12.580;2023-06-22T05:46:48;21.50;99.90
17701;DHT22;8969;48.576;12.580;2023-06-22T05:49:18;21.50;99.90
17701;DHT22;8969;48.576;12.580;2023-06-22T05:51:49;21.60;99.90
17701;DHT22;8969;48.576;12.580;2023-06-22T05:54:19;21.60;99.90
17701;DHT22;8969;48.576;12.580;2023-06-22T05:56:47;21.70;99.90
17701;DHT22;8969;48.576;12.580;2023-06-22T05:59:15;21.70;99.90
17701;DHT22;8969;48.576;12.580;2023-06-22T06:01:43;21.80;99.90
17701;DHT22;8969;48.576;12.580;2023-06-22T06:04:11;21.90;99.90
17701;DHT22;8969;48.576;12.580;2023-06-22T06:06:42;22.00;99.90
17701;DHT22;8969;48.576;12.580;2023-06-22T06:09:11;22.10;99.90
17701;DHT22;8969;48.576;12.580;2023-06-22T06:11:39;22.20;99.90
17701;DHT22;8969;48.576;12.580;2023-06-22T06:14:09;22.40;99.90
17701;DHT22;8969;48.576;12.580;2023-06-22T06:16:37;22.50;99.90
17701;DHT22;8969;48.576;12.580;2023-06-22T06:19:06;22.60;99.90
17701;DHT22;8969;48.576;12.580;2023-06-22T06:21:35;22.60;99.90
17701;DHT22;8969;48.576;12.580;2023-06-22T06:24:05;22.80;99.90
17701;DHT22;8969;48.576;12.580;2023-06-22T06:26:34;22.90;99.90
17701;DHT22;8969;48.576;12.580;2023-06-22T06:29:02;22.90;99.90
17701;DHT22;8969;48.576;12.580;2023-06-22T06:31:32;23.00;99.90
17701;DHT22;8969;48.576;12.580;2023-06-22T06:34:00;23.00;99.90
17701;DHT22;8969;48.576;12.580;2023-06-22T06:36:29;23.10;99.90
17701;DHT22;8969;48.576;12.580;2023-06-22T06:38:58;23.20;99.90
17701;DHT22;8969;48.576;12.580;2023-06-22T06:41:28;23.30;99.90
17701;DHT22;8969;48.576;12.580;2023-06-22T06:43:56;23.40;99.90
17701;DHT22;8969;48.576;12.580;2023-06-22T06:46:24;23.40;99.90
17701;DHT22;8969;48.576;12.580;2023-06-22T06:48:53;23.50;99.90
17701;DHT22;8969;48.576;12.580;2023-06-22T06:51:21;23.60;99.90
17701;DHT22;8969;48.576;12.580;2023-06-22T06:53:49;23.70;99.90
17701;DHT22;8969;48.576;12.580;2023-06-22T06:56:19;23.80;99.90
17701;DHT22;8969;48.576;12.580;2023-06-22T06:58:51;24.00;99.90
17701;DHT22;8969;48.576;12.580;2023-06-22T07:01:19;24.10;99.90
17701;DHT22;8969;48.576;12.580;2023-06-22T07:03:48;24.20;99.90
17701;DHT22;8969;48.576;12.580;2023-06-22T07:06:17;24.30;99.90
17701;DHT22;8969;48.576;12.580;2023-06-22T07:08:46;24.40;99.90
17701;DHT22;8969;48.576;12.580;2023-06-22T07:11:14;24.50;99.90
17701;DHT22;8969;48.576;12.580;2023-06-22T07:13:43;24.70;99.90
17701;DHT22;8969;48.576;12.580;2023-06-22T07:16:12;24.70;99.90
17701;DHT22;8969;48.576;12.580;2023-06-22T07:18:41;24.80;99.90
17701;DHT22;8969;48.576;12.580;2023-06-22T07:21:10;24.90;99.90
17701;DHT22;8969;48.576;12.580;2023-06-22T07:23:38;25.10;99.90
17701;DHT22;8969;48.576;12.580;2023-06-22T07:26:06;25.30;99.90
17701;DHT22;8969;48.576;12.580;2023-06-22T07:28:36;25.30;99.90
17701;DHT22;8969;48.576;12.580;2023-06-22T07:31:05;25.40;99.90
17701;DHT22;8969;48.576;12.580;2023-06-22T07:33:34;25.40;99.90
17701;DHT22;8969;48.576;12.580;2023-06-22T07:36:03;25.50;99.90
17701;DHT22;8969;48.576;12.580;2023-06-22T07:38:35;25.70;99.90
17701;DHT22;8969;48.576;12.580;2023-06-22T07:41:03;25.90;99.90
17701;DHT22;8969;48.576;12.580;2023-06-22T07:43:33;26.00;99.80
17701;DHT22;8969;48.576;12.580;2023-06-22T07:46:04;26.00;99.00
17701;DHT22;8969;48.576;12.580;2023-06-22T07:48:32;26.10;98.10
17701;DHT22;8969;48.576;12.580;2023-06-22T07:51:02;26.10;98.10
17701;DHT22;8969;48.576;12.580;2023-06-22T07:53:30;26.20;98.20
17701;DHT22;8969;48.576;12.580;2023-06-22T07:55:59;26.30;97.10
17701;DHT22;8969;48.576;12.580;2023-06-22T07:58:28;26.50;98.30
17701;DHT22;8969;48.576;12.580;2023-06-22T08:00:57;26.70;97.50
17701;DHT22;8969;48.576;12.580;2023-06-22T08:03:25;26.70;96.40
17701;DHT22;8969;48.576;12.580;2023-06-22T08:05:53;26.70;96.60
17701;DHT22;8969;48.576;12.580;2023-06-22T08:08:22;26.90;96.10
17701;DHT22;8969;48.576;12.580;2023-06-22T08:10:50;27.00;95.60
17701;DHT22;8969;48.576;12.580;2023-06-22T08:13:19;26.90;95.10
17701;DHT22;8969;48.576;12.580;2023-06-22T08:15:48;27.10;95.60
17701;DHT22;8969;48.576;12.580;2023-06-22T08:18:16;27.30;95.30
17701;DHT22;8969;48.576;12.580;2023-06-22T08:20:46;27.40;94.80
17701;DHT22;8969;48.576;12.580;2023-06-22T08:23:15;27.50;93.90
17701;DHT22;8969;48.576;12.580;2023-06-22T08:25:45;27.50;94.10
17701;DHT22;8969;48.576;12.580;2023-06-22T08:28:14;27.70;93.10
17701;DHT22;8969;48.576;12.580;2023-06-22T08:30:44;27.80;92.80
17701;DHT22;8969;48.576;12.580;2023-06-22T08:33:12;27.90;93.40
17701;DHT22;8969;48.576;12.580;2023-06-22T08:35:53;28.10;94.10
17701;DHT22;8969;48.576;12.580;2023-06-22T08:38:21;28.20;93.20
17701;DHT22;8969;48.576;12.580;2023-06-22T08:40:51;28.30;91.40
17701;DHT22;8969;48.576;12.580;2023-06-22T08:43:19;28.30;91.90
17701;DHT22;8969;48.576;12.580;2023-06-22T08:45:47;28.40;91.90
17701;DHT22;8969;48.576;12.580;2023-06-22T08:48:16;28.50;90.40
17701;DHT22;8969;48.576;12.580;2023-06-22T08:50:44;28.60;90.80
17701;DHT22;8969;48.576;12.580;2023-06-22T08:53:12;28.70;90.50
17701;DHT22;8969;48.576;12.580;2023-06-22T08:55:40;28.80;89.60
17701;DHT22;8969;48.576;12.580;2023-06-22T08:58:10;28.90;86.80
17701;DHT22;8969;48.576;12.580;2023-06-22T09:00:38;29.00;87.00
17701;DHT22;8969;48.576;12.580;2023-06-22T09:03:06;28.90;86.20
17701;DHT22;8969;48.576;12.580;2023-06-22T09:05:36;28.90;86.10
17701;DHT22;8969;48.576;12.580;2023-06-22T09:08:05;29.10;86.10
17701;DHT22;8969;48.576;12.580;2023-06-22T09:10:33;29.20;83.70
17701;DHT22;8969;48.576;12.580;2023-06-22T09:13:01;29.10;83.60
17701;DHT22;8969;48.576;12.580;2023-06-22T09:15:30;29.30;84.10
17701;DHT22;8969;48.576;12.580;2023-06-22T09:17:59;29.40;85.20
17701;DHT22;8969;48.576;12.580;2023-06-22T09:20:27;29.60;86.00
17701;DHT22;8969;48.576;12.580;2023-06-22T09:22:56;29.70;83.30
17701;DHT22;8969;48.576;12.580;2023-06-22T09:25:24;29.80;84.60
17701;DHT22;8969;48.576;12.580;2023-06-22T09:27:52;29.90;81.00
17701;DHT22;8969;48.576;12.580;2023-06-22T09:30:21;29.90;81.20
17701;DHT22;8969;48.576;12.580;2023-06-22T09:32:50;30.00;83.10
17701;DHT22;8969;48.576;12.580;2023-06-22T09:35:19;30.00;80.40
17701;DHT22;8969;48.576;12.580;2023-06-22T09:37:47;30.00;80.60
17701;DHT22;8969;48.576;12.580;2023-06-22T09:40:15;29.90;80.50
17701;DHT22;8969;48.576;12.580;2023-06-22T09:42:44;29.80;81.80
17701;DHT22;8969;48.576;12.580;2023-06-22T09:45:12;29.80;81.70
17701;DHT22;8969;48.576;12.580;2023-06-22T09:47:40;30.10;82.40
17701;DHT22;8969;48.576;12.580;2023-06-22T09:50:11;30.20;77.80
17701;DHT22;8969;48.576;12.580;2023-06-22T09:52:39;30.50;78.80
17701;DHT22;8969;48.576;12.580;2023-06-22T09:55:14;30.60;78.10
17701;DHT22;8969;48.576;12.580;2023-06-22T09:57:43;30.70;76.40
17701;DHT22;8969;48.576;12.580;2023-06-22T10:00:13;30.70;76.60
17701;DHT22;8969;48.576;12.580;2023-06-22T10:02:42;30.60;75.60
17701;DHT22;8969;48.576;12.580;2023-06-22T10:05:12;30.50;75.70
17701;DHT22;8969;48.576;12.580;2023-06-22T10:07:41;30.40;77.30
17701;DHT22;8969;48.576;12.580;2023-06-22T10:10:12;30.30;78.90
17701;DHT22;8969;48.576;12.580;2023-06-22T10:12:47;30.10;75.90
17701;DHT22;8969;48.576;12.580;2023-06-22T10:15:15;30.10;77.70
17701;DHT22;8969;48.576;12.580;2023-06-22T10:17:44;30.20;77.10
17701;DHT22;8969;48.576;12.580;2023-06-22T10:20:14;30.40;77.70
17701;DHT22;8969;48.576;12.580;2023-06-22T10:22:44;30.50;77.30
17701;DHT22;8969;48.576;12.580;2023-06-22T10:25:13;30.80;77.80
17701;DHT22;8969;48.576;12.580;2023-06-22T10:27:41;31.10;75.40
17701;DHT22;8969;48.576;12.580;2023-06-22T10:30:11;31.20;76.00
17701;DHT22;8969;48.576;12.580;2023-06-22T10:32:40;31.40;75.50
17701;DHT22;8969;48.576;12.580;2023-06-22T10:35:09;31.40;74.20
17701;DHT22;8969;48.576;12.580;2023-06-22T10:37:42;31.30;71.40
17701;DHT22;8969;48.576;12.580;2023-06-22T10:40:12;31.40;71.10
17701;DHT22;8969;48.576;12.580;2023-06-22T10:42:42;31.40;71.10
17701;DHT22;8969;48.576;12.580;2023-06-22T10:45:11;31.40;71.10
17701;DHT22;8969;48.576;12.580;2023-06-22T10:47:39;31.60;72.50
17701;DHT22;8969;48.576;12.580;2023-06-22T10:50:09;31.60;70.20
17701;DHT22;8969;48.576;12.580;2023-06-22T10:52:38;31.70;67.70
17701;DHT22;8969;48.576;12.580;2023-06-22T10:55:08;31.90;70.00
17701;DHT22;8969;48.576;12.580;2023-06-22T10:57:36;32.20;72.20
17701;DHT22;8969;48.576;12.580;2023-06-22T11:00:07;32.30;72.80
17701;DHT22;8969;48.576;12.580;2023-06-22T11:02:37;32.40;71.80
17701;DHT22;8969;48.576;12.580;2023-06-22T11:05:07;32.40;70.20
17701;DHT22;8969;48.576;12.580;2023-06-22T11:07:35;31.80;67.10
17701;DHT22;8969;48.576;12.580;2023-06-22T11:10:10;31.70;70.40
17701;DHT22;8969;48.576;12.580;2023-06-22T11:12:38;31.80;70.40
17701;DHT22;8969;48.576;12.580;2023-06-22T11:15:07;31.80;69.10
17701;DHT22;8969;48.576;12.580;2023-06-22T11:17:36;31.90;70.70
17701;DHT22;8969;48.576;12.580;2023-06-22T11:20:06;32.10;67.70
17701;DHT22;8969;48.576;12.580;2023-06-22T11:22:52;32.00;66.50
17701;DHT22;8969;48.576;12.580;2023-06-22T11:25:21;31.80;67.90
17701;DHT22;8969;48.576;12.580;2023-06-22T11:27:50;32.10;69.30
17701;DHT22;8969;48.576;12.580;2023-06-22T11:30:20;32.10;66.80
17701;DHT22;8969;48.576;12.580;2023-06-22T11:32:49;32.00;65.60
17701;DHT22;8969;48.576;12.580;2023-06-22T11:35:17;32.00;66.50
17701;DHT22;8969;48.576;12.580;2023-06-22T11:37:45;32.20;66.90
17701;DHT22;8969;48.576;12.580;2023-06-22T11:40:13;32.30;67.50
17701;DHT22;8969;48.576;12.580;2023-06-22T11:42:43;32.30;65.10
17701;DHT22;8969;48.576;12.580;2023-06-22T11:45:12;32.40;67.20
17701;DHT22;8969;48.576;12.580;2023-06-22T11:47:40;32.70;63.70
17701;DHT22;8969;48.576;12.580;2023-06-22T11:50:09;32.90;65.80
17701;DHT22;8969;48.576;12.580;2023-06-22T11:52:37;33.10;63.10
17701;DHT22;8969;48.576;12.580;2023-06-22T11:55:06;32.90;62.80
17701;DHT22;8969;48.576;12.580;2023-06-22T11:57:36;33.10;64.10
17701;DHT22;8969;48.576;12.580;2023-06-22T12:00:07;33.20;63.60
17701;DHT22;8969;48.576;12.580;2023-06-22T12:02:43;33.30;63.00
17701;DHT22;8969;48.576;12.580;2023-06-22T12:05:12;33.40;61.10
17701;DHT22;8969;48.576;12.580;2023-06-22T12:07:40;33.30;61.20
17701;DHT22;8969;48.576;12.580;2023-06-22T12:10:08;33.50;60.90
17701;DHT22;8969;48.576;12.580;2023-06-22T12:12:37;33.20;61.10
17701;DHT22;8969;48.576;12.580;2023-06-22T12:15:07;33.30;61.00
17701;DHT22;8969;48.576;12.580;2023-06-22T12:17:35;33.60;63.50
17701;DHT22;8969;48.576;12.580;2023-06-22T12:20:05;33.30;61.00
17701;DHT22;8969;48.576;12.580;2023-06-22T12:22:34;33.40;61.20
17701;DHT22;8969;48.576;12.580;2023-06-22T12:25:09;33.20;61.30
17701;DHT22;8969;48.576;12.580;2023-06-22T12:27:37;33.40;63.60
17701;DHT22;8969;48.576;12.580;2023-06-22T12:30:08;33.50;61.30
17701;DHT22;8969;48.576;12.580;2023-06-22T12:32:37;33.40;62.90
17701;DHT22;8969;48.576;12.580;2023-06-22T12:35:06;33.10;62.40
17701;DHT22;8969;48.576;12.580;2023-06-22T12:37:39;32.90;62.50
17701;DHT22;8969;48.576;12.580;2023-06-22T12:40:08;32.90;63.10
17701;DHT22;8969;48.576;12.580;2023-06-22T12:42:37;33.00;62.70
17701;DHT22;8969;48.576;12.580;2023-06-22T12:45:08;33.30;63.70
17701;DHT22;8969;48.576;12.580;2023-06-22T12:47:36;33.50;62.90
17701;DHT22;8969;48.576;12.580;2023-06-22T12:50:05;33.30;63.70
17701;DHT22;8969;48.576;12.580;2023-06-22T12:52:36;33.00;62.60
17701;DHT22;8969;48.576;12.580;2023-06-22T12:55:06;33.20;61.70
17701;DHT22;8969;48.576;12.580;2023-06-22T12:57:34;33.50;62.30
17701;DHT22;8969;48.576;12.580;2023-06-22T13:00:03;33.60;62.60
17701;DHT22;8969;48.576;12.580;2023-06-22T13:02:35;33.60;63.20
17701;DHT22;8969;48.576;12.580;2023-06-22T13:05:05;33.70;61.90
17701;DHT22;8969;48.576;12.580;2023-06-22T13:07:33;34.00;62.80
17701;DHT22;8969;48.576;12.580;2023-06-22T13:10:01;34.20;62.20
17701;DHT22;8969;48.576;12.580;2023-06-22T13:12:29;34.30;60.60
17701;DHT22;8969;48.576;12.580;2023-06-22T13:14:57;34.20;60.10
17701;DHT22;8969;48.576;12.580;2023-06-22T13:17:25;34.30;59.60
17701;DHT22;8969;48.576;12.580;2023-06-22T13:19:55;34.30;58.10
17701;DHT22;8969;48.576;12.580;2023-06-22T13:22:27;34.20;58.20
17701;DHT22;8969;48.576;12.580;2023-06-22T13:24:56;34.40;60.00
17701;DHT22;8969;48.576;12.580;2023-06-22T13:27:24;34.40;59.60
17701;DHT22;8969;48.576;12.580;2023-06-22T13:29:53;34.50;60.20
17701;DHT22;8969;48.576;12.580;2023-06-22T13:32:21;34.40;56.80
17701;DHT22;8969;48.576;12.580;2023-06-22T13:34:50;34.30;58.10
17701;DHT22;8969;48.576;12.580;2023-06-22T13:37:20;34.20;58.70
17701;DHT22;8969;48.576;12.580;2023-06-22T13:39:48;34.30;60.30
17701;DHT22;8969;48.576;12.580;2023-06-22T13:42:16;34.00;59.80
17701;DHT22;8969;48.576;12.580;2023-06-22T13:44:44;33.70;59.30
17701;DHT22;8969;48.576;12.580;2023-06-22T13:47:13;33.60;60.70
17701;DHT22;8969;48.576;12.580;2023-06-22T13:49:41;33.70;59.90
17701;DHT22;8969;48.576;12.580;2023-06-22T13:52:09;33.80;59.80
17701;DHT22;8969;48.576;12.580;2023-06-22T13:54:41;34.00;59.30
17701;DHT22;8969;48.576;12.580;2023-06-22T13:57:09;34.20;59.80
17701;DHT22;8969;48.576;12.580;2023-06-22T13:59:37;34.40;58.60
17701;DHT22;8969;48.576;12.580;2023-06-22T14:02:05;34.40;58.20
17701;DHT22;8969;48.576;12.580;2023-06-22T14:04:34;34.30;57.10
17701;DHT22;8969;48.576;12.580;2023-06-22T14:07:03;34.10;58.50
17701;DHT22;8969;48.576;12.580;2023-06-22T14:09:31;34.30;59.10
17701;DHT22;8969;48.576;12.580;2023-06-22T14:12:04;34.00;58.20
17701;DHT22;8969;48.576;12.580;2023-06-22T14:14:33;33.60;57.30
17701;DHT22;8969;48.576;12.580;2023-06-22T14:17:02;33.50;58.90
17701;DHT22;8969;48.576;12.580;2023-06-22T14:19:31;33.40;59.30
17701;DHT22;8969;48.576;12.580;2023-06-22T14:21:59;33.30;60.70
17701;DHT22;8969;48.576;12.580;2023-06-22T14:24:27;33.60;62.30
17701;DHT22;8969;48.576;12.580;2023-06-22T14:26:56;33.80;60.50
17701;DHT22;8969;48.576;12.580;2023-06-22T14:29:26;33.60;60.00
17701;DHT22;8969;48.576;12.580;2023-06-22T14:31:54;33.40;61.10
17701;DHT22;8969;48.576;12.580;2023-06-22T14:34:22;33.30;61.00
17701;DHT22;8969;48.576;12.580;2023-06-22T14:36:50;33.30;60.60
17701;DHT22;8969;48.576;12.580;2023-06-22T14:39:19;33.20;60.40
17701;DHT22;8969;48.576;12.580;2023-06-22T14:41:47;33.20;62.00
17701;DHT22;8969;48.576;12.580;2023-06-22T14:44:15;33.00;61.20
17701;DHT22;8969;48.576;12.580;2023-06-22T14:46:45;32.70;61.50
17701;DHT22;8969;48.576;12.580;2023-06-22T14:49:13;32.70;62.10
17701;DHT22;8969;48.576;12.580;2023-06-22T14:51:41;32.70;62.20
17701;DHT22;8969;48.576;12.580;2023-06-22T14:54:09;32.70;62.00
17701;DHT22;8969;48.576;12.580;2023-06-22T14:56:37;32.70;62.80
17701;DHT22;8969;48.576;12.580;2023-06-22T14:59:05;32.90;63.90
17701;DHT22;8969;48.576;12.580;2023-06-22T15:01:35;32.90;63.60
17701;DHT22;8969;48.576;12.580;2023-06-22T15:04:08;33.00;62.20
17701;DHT22;8969;48.576;12.580;2023-06-22T15:06:36;33.00;61.70
17701;DHT22;8969;48.576;12.580;2023-06-22T15:09:05;33.10;63.30
17701;DHT22;8969;48.576;12.580;2023-06-22T15:11:33;33.10;64.70
17701;DHT22;8969;48.576;12.580;2023-06-22T15:14:01;33.00;64.90
17701;DHT22;8969;48.576;12.580;2023-06-22T15:16:29;33.00;62.50
17701;DHT22;8969;48.576;12.580;2023-06-22T15:18:57;32.90;64.60
17701;DHT22;8969;48.576;12.580;2023-06-22T15:21:28;32.90;64.00
17701;DHT22;8969;48.576;12.580;2023-06-22T15:23:56;32.70;64.20
17701;DHT22;8969;48.576;12.580;2023-06-22T15:26:24;32.70;65.70
17701;DHT22;8969;48.576;12.580;2023-06-22T15:28:52;32.50;65.20
17701;DHT22;8969;48.576;12.580;2023-06-22T15:31:22;32.50;66.00
17701;DHT22;8969;48.576;12.580;2023-06-22T15:33:50;32.50;66.00
17701;DHT22;8969;48.576;12.580;2023-06-22T15:36:18;32.50;66.50
17701;DHT22;8969;48.576;12.580;2023-06-22T15:38:48;32.50;65.40
17701;DHT22;8969;48.576;12.580;2023-06-22T15:41:16;32.40;65.80
17701;DHT22;8969;48.576;12.580;2023-06-22T15:43:44;32.30;66.40